Terminal Aerodrome Forecast
Issued by NWS

Home | Current Version | Previous Version | Text Only | Print | Product List | Glossary Off
Versions: 1 2 3 4 5 6 7 8 9 10 11 12 13 14

000
FTUS43 KMPX 270500
TAFRNH
TAF
KRNH 270520Z 2706/2806 27005KT P6SM FEW050 SCT090
     FM271200 28010KT P6SM SCT035 OVC050
     FM271500 32013G20KT P6SM -SHRA BKN025 OVC040
     FM271800 34015G22KT P6SM -SHRA SCT030 OVC045
     FM280000 36010KT P6SM VCSH SCT035 BKN050=

USA.gov is the U.S. government's official web portal to all federal, state and local government web resources and services.